Pagina principale
METAR-TAF:

METAR-TAF

Aeroporti :

Sugh el Giumaa

Tripoli, Libia

latitudine: 32-54N, longitudine: 13-17E, altezza: 11 m

METAR: mancante

Ora: 21:02 (19:02 UTC)

Previsione

Il bollettino è stato emesso 2 ore e 2 minuti fa, alle 17:00 UTC
Previsione valida dal 21 alle 18 UTC al 22 alle 18 UTC
Vento 8 kt da ovest
Visibilità 10 km o più
Nubi sparse ad un'altezza di 3000 ft
Evoluzione graduale
dal 21 alle 20 UTC al 21 alle 22 UTC
Vento 2 kt da direzioni variabili
Evoluzione graduale
dal 22 alle 04 UTC al 22 alle 06 UTC
Vento 10 kt da sud
Visibilità: 8000 m

TAF: HLLM 211700Z 2118/2218 27008KT 9999 SCT030 BECMG 2120/2122 VRB02KT BECMG 2204/2206 18010KT 8000 NSC

Osservazioni e previsioni meteorologiche di più di 4000 aeroporti (messaggi METAR e TAF).

Le stazioni disponibili sono rappresentate dai dischi gialli e rossi sulla carta.

Puntare il mouse per vedere il nome della stazione.

Clicca sopra per visualizzare le osservazioni e previsioni meteorologiche.

Per cambiare la mappa : fare clic sui pulsanti verdi con una croce nera per ingrandire, il pulsante verde con un trattino per diminuire, o sulla freccia verde per le mappe adiacenti.


METAR-TAF: